createdAt,value
2023-05-14T00:01:53.671Z,15.02
2023-05-14T00:04:20.539Z,14.97
2023-05-14T00:06:47.901Z,14.93
2023-05-14T00:09:14.815Z,14.90
2023-05-14T00:11:41.621Z,14.85
2023-05-14T00:14:08.499Z,14.80
2023-05-14T00:16:35.386Z,14.76
2023-05-14T00:19:02.391Z,14.74
2023-05-14T00:21:29.258Z,14.70
2023-05-14T00:23:56.057Z,14.63
2023-05-14T00:26:22.892Z,14.58
2023-05-14T00:28:50.259Z,14.55
2023-05-14T00:31:17.111Z,14.50
2023-05-14T00:33:43.992Z,14.44
2023-05-14T00:36:10.869Z,14.39
2023-05-14T00:38:37.695Z,14.37
2023-05-14T00:41:04.645Z,14.30
2023-05-14T00:43:33.168Z,14.25
2023-05-14T00:46:00.965Z,14.22
2023-05-14T00:48:28.281Z,14.19
2023-05-14T00:50:55.280Z,14.18
2023-05-14T00:53:22.475Z,14.14
2023-05-14T00:55:50.470Z,14.09
2023-05-14T00:58:18.963Z,14.04
2023-05-14T01:00:46.210Z,14.00
2023-05-14T01:03:33.761Z,13.93
2023-05-14T01:06:23.649Z,13.90
2023-05-14T01:09:12.549Z,13.83
2023-05-14T01:11:54.407Z,13.79
2023-05-14T01:14:33.641Z,13.75
2023-05-14T01:17:04.822Z,13.71
2023-05-14T01:19:44.463Z,13.63
2023-05-14T01:22:13.254Z,13.59
2023-05-14T01:24:41.153Z,13.53
2023-05-14T01:27:08.065Z,13.46
2023-05-14T01:29:42.158Z,13.43
2023-05-14T01:32:10.625Z,13.40
2023-05-14T01:34:40.492Z,13.35
2023-05-14T01:37:11.876Z,13.30
2023-05-14T01:39:42.187Z,13.24
2023-05-14T01:42:10.879Z,13.22
2023-05-14T01:44:37.872Z,13.21
2023-05-14T01:47:04.952Z,13.18
2023-05-14T01:49:32.603Z,13.17
2023-05-14T01:51:59.447Z,13.14
2023-05-14T01:54:26.257Z,13.12
2023-05-14T01:56:53.039Z,13.09
2023-05-14T01:59:19.859Z,13.05
2023-05-14T02:01:47.216Z,13.06
2023-05-14T02:04:14.280Z,13.07
2023-05-14T02:06:41.803Z,13.07
2023-05-14T02:09:08.642Z,13.08
2023-05-14T02:11:35.749Z,13.10
2023-05-14T02:14:03.907Z,13.10
2023-05-14T02:16:30.736Z,13.06
2023-05-14T02:18:57.646Z,13.00
2023-05-14T02:21:24.629Z,12.98
2023-05-14T02:23:51.602Z,12.96
2023-05-14T02:26:18.450Z,12.94
2023-05-14T02:28:45.892Z,12.89
2023-05-14T02:31:13.274Z,12.84
2023-05-14T02:33:40.287Z,12.81
2023-05-14T02:36:07.490Z,12.77
2023-05-14T02:38:34.379Z,12.71
2023-05-14T02:41:01.154Z,12.67
2023-05-14T02:43:28.105Z,12.64
2023-05-14T02:45:54.877Z,12.63
2023-05-14T02:48:21.930Z,12.59
2023-05-14T02:50:51.489Z,12.58
2023-05-14T02:53:18.766Z,12.54
2023-05-14T02:55:45.588Z,12.50
2023-05-14T02:58:12.367Z,12.44
2023-05-14T03:00:39.255Z,12.38
2023-05-14T03:03:06.887Z,12.31
2023-05-14T03:05:34.250Z,12.27
2023-05-14T03:08:01.092Z,12.21
2023-05-14T03:10:27.941Z,12.16
2023-05-14T03:12:55.128Z,12.11
2023-05-14T03:15:21.973Z,12.05
2023-05-14T03:17:50.198Z,11.99
2023-05-14T03:20:17.221Z,11.93
2023-05-14T03:22:44.117Z,11.88
2023-05-14T03:25:11.181Z,11.83
2023-05-14T03:27:38.402Z,11.79
2023-05-14T03:30:06.248Z,11.75
2023-05-14T03:32:33.173Z,11.72
2023-05-14T03:35:00.052Z,11.67
2023-05-14T03:37:26.873Z,11.65
2023-05-14T03:39:53.676Z,11.59
2023-05-14T03:42:20.711Z,11.54
2023-05-14T03:44:47.885Z,11.51
2023-05-14T03:47:14.740Z,11.49
2023-05-14T03:49:41.631Z,11.46
2023-05-14T03:52:10.691Z,11.43
2023-05-14T03:54:38.546Z,11.40
2023-05-14T03:57:05.504Z,11.37
2023-05-14T03:59:32.366Z,11.36
2023-05-14T04:01:59.214Z,11.34
2023-05-14T04:04:26.436Z,11.33
2023-05-14T04:06:54.549Z,11.28
2023-05-14T04:09:21.424Z,11.26
2023-05-14T04:11:48.188Z,11.25
2023-05-14T04:14:15.067Z,11.24
2023-05-14T04:16:43.117Z,11.25
2023-05-14T04:19:10.108Z,11.29
2023-05-14T04:21:36.930Z,11.42
2023-05-14T04:24:04.071Z,11.67
2023-05-14T04:26:30.852Z,11.83
2023-05-14T04:28:58.318Z,11.90
2023-05-14T04:31:25.121Z,11.94
2023-05-14T04:33:51.885Z,12.08
2023-05-14T04:36:18.688Z,12.26
2023-05-14T04:38:45.507Z,12.55
2023-05-14T04:41:12.355Z,12.70
2023-05-14T04:43:40.102Z,12.74
2023-05-14T04:46:07.027Z,12.80
2023-05-14T04:48:33.898Z,12.74
2023-05-14T04:51:01.081Z,12.65
2023-05-14T04:53:27.911Z,12.59
2023-05-14T04:55:54.722Z,12.47
2023-05-14T04:58:23.556Z,12.42
2023-05-14T05:00:50.682Z,12.38
2023-05-14T05:03:17.758Z,12.31
2023-05-14T05:05:44.599Z,12.27
2023-05-14T05:08:11.534Z,12.22
2023-05-14T05:10:38.364Z,12.18
2023-05-14T05:13:05.245Z,12.19
2023-05-14T05:15:32.105Z,12.22
2023-05-14T05:17:58.984Z,12.26
2023-05-14T05:20:25.991Z,12.32
2023-05-14T05:22:52.831Z,12.39
2023-05-14T05:25:19.758Z,12.44
2023-05-14T05:27:46.598Z,12.57
2023-05-14T05:30:13.460Z,12.67
2023-05-14T05:32:40.737Z,12.77
2023-05-14T05:35:08.123Z,12.89
2023-05-14T05:37:34.943Z,13.01
2023-05-14T05:40:01.724Z,13.09
2023-05-14T05:42:28.615Z,13.05
2023-05-14T05:44:56.317Z,13.00
2023-05-14T05:47:23.436Z,12.96
2023-05-14T05:49:50.229Z,12.92
2023-05-14T05:52:17.203Z,12.88
2023-05-14T05:54:44.024Z,12.90
2023-05-14T05:57:10.807Z,12.90
2023-05-14T05:59:37.580Z,12.94
2023-05-14T06:02:19.542Z,13.08
2023-05-14T06:04:46.831Z,13.30
2023-05-14T06:07:13.689Z,13.53
2023-05-14T06:09:40.486Z,13.71
2023-05-14T06:12:07.840Z,13.91
2023-05-14T06:14:34.627Z,14.12
2023-05-14T06:17:01.731Z,14.40
2023-05-14T06:19:28.697Z,14.62
2023-05-14T06:21:55.994Z,14.75
2023-05-14T06:24:22.828Z,14.82
2023-05-14T06:26:49.626Z,14.95
2023-05-14T06:29:16.423Z,15.08
2023-05-14T06:31:43.555Z,15.36
2023-05-14T06:34:10.798Z,15.52
2023-05-14T06:36:37.635Z,15.56
2023-05-14T06:39:04.505Z,15.53
2023-05-14T06:41:31.333Z,15.49
2023-05-14T06:43:58.253Z,15.57
2023-05-14T06:46:25.108Z,15.62
2023-05-14T06:48:51.913Z,15.75
2023-05-14T06:51:18.753Z,15.77
2023-05-14T06:53:46.804Z,15.78
2023-05-14T06:56:14.681Z,15.82
2023-05-14T06:58:41.480Z,15.96
2023-05-14T07:01:08.566Z,16.21
2023-05-14T07:03:35.424Z,16.62
2023-05-14T07:06:02.320Z,16.91
2023-05-14T07:08:29.125Z,17.40
2023-05-14T07:10:57.363Z,18.25
2023-05-14T07:13:26.338Z,18.84
2023-05-14T07:15:57.385Z,19.51
2023-05-14T07:18:24.244Z,20.26
2023-05-14T07:20:51.049Z,20.88
2023-05-14T07:23:19.749Z,21.48
2023-05-14T07:25:46.882Z,21.97
2023-05-14T07:28:13.914Z,22.27
2023-05-14T07:30:40.683Z,21.94
2023-05-14T07:33:07.574Z,21.34
2023-05-14T07:35:34.538Z,21.54
2023-05-14T07:38:01.639Z,21.66
2023-05-14T07:40:28.388Z,21.71
2023-05-14T07:42:55.121Z,21.92
2023-05-14T07:45:22.144Z,22.21
2023-05-14T07:47:51.938Z,22.00
2023-05-14T07:50:19.524Z,22.16
2023-05-14T07:52:46.462Z,22.34
2023-05-14T07:55:13.244Z,22.38
2023-05-14T07:57:40.477Z,22.42
2023-05-14T08:00:08.277Z,22.65
2023-05-14T08:02:41.167Z,22.93
2023-05-14T08:05:09.813Z,22.95
2023-05-14T08:07:36.762Z,22.52
2023-05-14T08:10:04.274Z,22.13
2023-05-14T08:12:31.711Z,21.80
2023-05-14T08:14:58.729Z,21.90
2023-05-14T08:17:25.557Z,22.07
2023-05-14T08:19:52.987Z,21.90
2023-05-14T08:22:19.975Z,21.73
2023-05-14T08:24:46.770Z,21.70
2023-05-14T08:27:13.591Z,21.96
2023-05-14T08:29:40.429Z,22.16
2023-05-14T08:32:19.385Z,22.25
2023-05-14T08:34:50.120Z,21.77
2023-05-14T08:37:16.920Z,21.37
2023-05-14T08:39:43.885Z,20.99
2023-05-14T08:42:13.742Z,20.78
2023-05-14T08:44:52.432Z,20.74
2023-05-14T08:47:23.864Z,20.76
2023-05-14T08:50:09.386Z,20.77
2023-05-14T08:52:37.288Z,20.77
2023-05-14T08:55:06.848Z,21.10
2023-05-14T08:57:34.582Z,21.46
2023-05-14T09:00:08.283Z,21.55
2023-05-14T09:02:36.875Z,21.51
2023-05-14T09:05:04.288Z,21.48
2023-05-14T09:07:31.785Z,21.60
2023-05-14T09:09:59.317Z,21.63
2023-05-14T09:12:26.288Z,21.99
2023-05-14T09:14:53.636Z,22.38
2023-05-14T09:17:20.916Z,22.85
2023-05-14T09:19:49.231Z,23.10
2023-05-14T09:22:18.272Z,23.08
2023-05-14T09:24:46.225Z,22.89
2023-05-14T09:27:20.797Z,22.88
2023-05-14T09:29:48.662Z,23.16
2023-05-14T09:32:15.641Z,23.35
2023-05-14T09:34:42.444Z,23.43
2023-05-14T09:37:10.264Z,23.41
2023-05-14T09:39:38.910Z,23.45
2023-05-14T09:42:06.378Z,23.57
2023-05-14T09:44:33.297Z,23.69
2023-05-14T09:47:00.350Z,23.73
2023-05-14T09:49:27.172Z,23.76
2023-05-14T09:51:53.945Z,23.77
2023-05-14T09:54:20.822Z,23.68
2023-05-14T09:56:47.692Z,23.76
2023-05-14T09:59:14.997Z,23.95
2023-05-14T10:01:44.198Z,24.28
2023-05-14T10:04:12.842Z,24.67
2023-05-14T10:06:42.225Z,24.98
2023-05-14T10:09:16.178Z,25.26
2023-05-14T10:11:45.530Z,25.32
2023-05-14T10:14:53.272Z,25.47
2023-05-14T10:17:26.033Z,25.68
2023-05-14T10:19:57.346Z,26.01
2023-05-14T10:22:30.883Z,26.29
2023-05-14T10:24:57.904Z,26.43
2023-05-14T10:27:25.679Z,26.42
2023-05-14T10:29:54.730Z,26.23
2023-05-14T10:32:25.930Z,26.08
2023-05-14T10:34:54.018Z,25.99
2023-05-14T10:37:23.998Z,25.95
2023-05-14T10:39:54.140Z,26.00
2023-05-14T10:42:40.754Z,26.16
2023-05-14T10:45:10.770Z,26.22
2023-05-14T10:47:47.197Z,26.22
2023-05-14T10:50:17.729Z,25.88
2023-05-14T10:52:45.924Z,25.66
2023-05-14T10:55:15.366Z,25.57
2023-05-14T10:57:45.054Z,25.63
2023-05-14T11:00:14.508Z,25.71
2023-05-14T11:02:46.842Z,25.66
2023-05-14T11:05:17.711Z,25.65
2023-05-14T11:07:50.067Z,25.68
2023-05-14T11:10:21.494Z,25.89
2023-05-14T11:12:51.194Z,25.93
2023-05-14T11:15:21.184Z,26.10
2023-05-14T11:17:50.557Z,26.37
2023-05-14T11:20:19.217Z,26.83
2023-05-14T11:22:48.095Z,27.41
2023-05-14T11:25:15.730Z,27.80
2023-05-14T11:27:47.992Z,28.10
2023-05-14T11:30:18.401Z,28.41
2023-05-14T11:32:47.789Z,28.51
2023-05-14T11:35:15.567Z,28.74
2023-05-14T11:37:43.721Z,28.91
2023-05-14T11:40:19.052Z,28.88
2023-05-14T11:42:46.075Z,28.91
2023-05-14T11:45:25.594Z,28.78
2023-05-14T11:47:54.739Z,28.78
2023-05-14T11:50:23.130Z,29.08
2023-05-14T11:52:51.001Z,29.19
2023-05-14T11:55:17.972Z,29.42
2023-05-14T11:57:44.997Z,29.82
2023-05-14T12:00:14.516Z,30.04
2023-05-14T12:02:41.737Z,30.27
2023-05-14T12:05:11.714Z,30.47
2023-05-14T12:07:39.637Z,30.73
2023-05-14T12:10:07.695Z,31.06
2023-05-14T12:12:37.136Z,31.39
2023-05-14T12:15:13.539Z,31.27
2023-05-14T12:17:40.825Z,30.89
2023-05-14T12:20:12.481Z,30.18
2023-05-14T12:22:42.335Z,29.49
2023-05-14T12:25:13.833Z,29.10
2023-05-14T12:27:44.780Z,29.08
2023-05-14T12:30:27.516Z,29.23
2023-05-14T12:32:54.586Z,29.47
2023-05-14T12:35:22.837Z,29.47
2023-05-14T12:37:50.066Z,29.41
2023-05-14T12:40:16.910Z,28.62
2023-05-14T12:42:43.688Z,27.98
2023-05-14T12:45:11.401Z,27.59
2023-05-14T12:47:38.280Z,27.27
2023-05-14T12:50:06.358Z,26.87
2023-05-14T12:52:38.427Z,26.49
2023-05-14T12:55:09.101Z,26.34
2023-05-14T12:57:37.117Z,26.32
2023-05-14T13:00:07.104Z,26.23
2023-05-14T13:02:42.525Z,25.95
2023-05-14T13:05:13.919Z,25.80
2023-05-14T13:07:40.936Z,25.80
2023-05-14T13:10:08.728Z,25.85
2023-05-14T13:12:35.730Z,25.98
2023-05-14T13:15:02.844Z,26.23
2023-05-14T13:17:30.347Z,26.45
2023-05-14T13:19:57.334Z,26.56
2023-05-14T13:22:24.312Z,26.54
2023-05-14T13:24:51.186Z,26.24
2023-05-14T13:27:18.088Z,26.05
2023-05-14T13:29:44.882Z,26.03
2023-05-14T13:32:11.781Z,25.92
2023-05-14T13:34:38.574Z,25.78
2023-05-14T13:37:05.542Z,25.70
2023-05-14T13:39:32.414Z,25.70
2023-05-14T13:41:59.243Z,25.91
2023-05-14T13:44:26.137Z,26.24
2023-05-14T13:46:53.238Z,26.64
2023-05-14T13:49:20.193Z,26.89
2023-05-14T13:51:46.997Z,26.99
2023-05-14T13:54:13.780Z,26.96
2023-05-14T13:56:40.709Z,26.46
2023-05-14T13:59:07.635Z,26.00
2023-05-14T14:01:34.697Z,25.69
2023-05-14T14:04:01.608Z,25.52
2023-05-14T14:06:31.995Z,25.32
2023-05-14T14:08:58.843Z,25.00
2023-05-14T14:11:25.968Z,24.51
2023-05-14T14:13:53.336Z,24.17
2023-05-14T14:16:20.409Z,24.04
2023-05-14T14:18:47.266Z,23.96
2023-05-14T14:21:17.873Z,23.78
2023-05-14T14:23:47.383Z,23.66
2023-05-14T14:26:14.507Z,23.66
2023-05-14T14:28:41.511Z,23.67
2023-05-14T14:31:08.426Z,23.67
2023-05-14T14:33:35.335Z,23.56
2023-05-14T14:36:02.203Z,23.40
2023-05-14T14:38:29.012Z,23.20
2023-05-14T14:40:56.043Z,23.01
2023-05-14T14:43:23.039Z,22.86
2023-05-14T14:45:49.945Z,22.74
2023-05-14T14:48:28.144Z,22.64
2023-05-14T14:50:55.730Z,22.57
2023-05-14T14:53:23.837Z,22.49
2023-05-14T14:55:51.836Z,22.43
2023-05-14T14:58:20.727Z,22.41
2023-05-14T15:00:49.368Z,22.46
2023-05-14T15:03:16.296Z,22.56
2023-05-14T15:05:43.385Z,22.66
2023-05-14T15:08:10.792Z,22.74
2023-05-14T15:10:38.398Z,22.76
2023-05-14T15:13:07.432Z,22.82
2023-05-14T15:15:35.952Z,22.84
2023-05-14T15:18:04.389Z,22.91
2023-05-14T15:20:31.495Z,22.98
2023-05-14T15:22:58.353Z,23.01
2023-05-14T15:25:26.767Z,23.02
2023-05-14T15:27:53.786Z,23.04
2023-05-14T15:30:20.935Z,23.14
2023-05-14T15:32:47.895Z,23.23
2023-05-14T15:35:14.716Z,23.28
2023-05-14T15:37:44.677Z,23.29
2023-05-14T15:40:12.546Z,23.35
2023-05-14T15:42:44.048Z,23.44
2023-05-14T15:45:13.454Z,23.51
2023-05-14T15:47:41.815Z,23.58
2023-05-14T15:50:09.308Z,23.71
2023-05-14T15:52:36.560Z,23.64
2023-05-14T15:55:06.102Z,23.57
2023-05-14T15:57:33.942Z,23.45
2023-05-14T16:00:00.831Z,23.34
2023-05-14T16:02:30.465Z,23.35
2023-05-14T16:04:57.454Z,23.37
2023-05-14T16:07:24.356Z,23.36
2023-05-14T16:09:51.199Z,23.43
2023-05-14T16:12:18.177Z,23.54
2023-05-14T16:14:45.413Z,23.54
2023-05-14T16:17:12.440Z,23.48
2023-05-14T16:19:39.686Z,23.39
2023-05-14T16:22:06.544Z,23.28
2023-05-14T16:24:33.528Z,23.08
2023-05-14T16:27:00.806Z,22.96
2023-05-14T16:29:27.903Z,22.85
2023-05-14T16:31:55.032Z,22.77
2023-05-14T16:34:21.899Z,22.66
2023-05-14T16:36:48.760Z,22.52
2023-05-14T16:39:16.592Z,22.38
2023-05-14T16:41:43.409Z,22.24
2023-05-14T16:44:10.235Z,22.14
2023-05-14T16:46:37.069Z,22.05
2023-05-14T16:49:04.285Z,21.94
2023-05-14T16:51:31.740Z,21.82
2023-05-14T16:53:58.722Z,21.75
2023-05-14T16:56:26.520Z,21.69
2023-05-14T16:58:53.404Z,21.63
2023-05-14T17:01:20.232Z,21.55
2023-05-14T17:03:47.013Z,21.50
2023-05-14T17:06:13.901Z,21.41
2023-05-14T17:11:07.981Z,21.28
2023-05-14T17:13:34.850Z,21.21
2023-05-14T17:16:02.132Z,21.13
2023-05-14T17:18:29.186Z,21.05
2023-05-14T17:20:56.556Z,20.96
2023-05-14T17:23:23.661Z,20.87
2023-05-14T17:25:51.136Z,20.84
2023-05-14T17:28:18.044Z,20.82
2023-05-14T17:30:44.904Z,20.77
2023-05-14T17:33:11.890Z,20.71
2023-05-14T17:35:39.103Z,20.68
2023-05-14T17:38:06.438Z,20.64
2023-05-14T17:40:33.587Z,20.57
2023-05-14T17:43:00.867Z,20.52
2023-05-14T17:45:29.502Z,20.44
2023-05-14T17:47:59.164Z,20.36
2023-05-14T17:50:26.358Z,20.27
2023-05-14T17:52:53.994Z,20.19
2023-05-14T17:55:21.847Z,20.12
2023-05-14T17:57:48.871Z,20.10
2023-05-14T18:00:15.973Z,20.00
2023-05-14T18:02:42.873Z,19.93
2023-05-14T18:05:10.178Z,19.84
2023-05-14T18:07:37.238Z,19.75
2023-05-14T18:10:04.825Z,19.64
2023-05-14T18:12:31.672Z,19.52
2023-05-14T18:14:58.479Z,19.41
2023-05-14T18:17:25.396Z,19.27
2023-05-14T18:19:52.247Z,19.12
2023-05-14T18:22:21.516Z,19.00
2023-05-14T18:24:48.360Z,18.84
2023-05-14T18:27:15.711Z,18.70
2023-05-14T18:29:43.420Z,18.63
2023-05-14T18:32:10.267Z,18.58
2023-05-14T18:34:37.010Z,18.46
2023-05-14T18:37:03.854Z,18.36
2023-05-14T18:39:30.670Z,18.26
2023-05-14T18:41:57.531Z,18.13
2023-05-14T18:44:24.342Z,18.03
2023-05-14T18:46:51.274Z,18.01
2023-05-14T18:49:18.075Z,17.95
2023-05-14T18:51:44.895Z,17.86
2023-05-14T18:54:11.758Z,17.78
2023-05-14T18:56:40.029Z,17.70
2023-05-14T18:59:06.910Z,17.61
2023-05-14T19:01:33.958Z,17.49
2023-05-14T19:04:03.083Z,17.38
2023-05-14T19:06:31.682Z,17.28
2023-05-14T19:08:59.018Z,17.18
2023-05-14T19:11:26.322Z,17.10
2023-05-14T19:13:53.277Z,17.01
2023-05-14T19:16:20.295Z,16.90
2023-05-14T19:18:47.244Z,16.82
2023-05-14T19:21:15.363Z,16.75
2023-05-14T19:23:42.260Z,16.68
2023-05-14T19:26:09.215Z,16.61
2023-05-14T19:28:37.994Z,16.54
2023-05-14T19:31:06.010Z,16.51
2023-05-14T19:33:32.838Z,16.52
2023-05-14T19:35:59.715Z,16.47
2023-05-14T19:38:26.603Z,16.39
2023-05-14T19:40:56.842Z,16.34
2023-05-14T19:43:25.654Z,16.28
2023-05-14T19:45:52.824Z,16.24
2023-05-14T19:48:19.812Z,16.23
2023-05-14T19:50:47.295Z,16.26
2023-05-14T19:53:14.586Z,16.22
2023-05-14T19:55:41.833Z,16.19
2023-05-14T19:58:09.045Z,16.10
2023-05-14T20:00:37.008Z,16.04
2023-05-14T20:03:05.844Z,16.02
2023-05-14T20:05:34.440Z,16.03
2023-05-14T20:08:01.316Z,16.01
2023-05-14T20:10:28.426Z,15.96
2023-05-14T20:12:55.425Z,15.95
2023-05-14T20:15:22.195Z,15.93
2023-05-14T20:17:50.735Z,15.89
2023-05-14T20:20:17.723Z,15.87
2023-05-14T20:22:44.700Z,15.85
2023-05-14T20:25:12.372Z,15.82
2023-05-14T20:27:41.166Z,15.78
2023-05-14T20:30:08.726Z,15.76
2023-05-14T20:32:35.662Z,15.71
2023-05-14T20:35:02.913Z,15.66
2023-05-14T20:37:33.232Z,15.62
2023-05-14T20:40:02.125Z,15.56
2023-05-14T20:42:28.942Z,15.52
2023-05-14T20:44:55.828Z,15.49
2023-05-14T20:47:26.688Z,15.43
2023-05-14T20:49:53.696Z,15.39
2023-05-14T20:52:20.537Z,15.35
2023-05-14T20:54:49.022Z,15.29
2023-05-14T20:57:16.093Z,15.22
2023-05-14T20:59:43.310Z,15.17
2023-05-14T21:02:10.795Z,15.14
2023-05-14T21:04:38.394Z,15.09
2023-05-14T21:07:06.228Z,15.06
2023-05-14T21:09:33.353Z,15.00
2023-05-14T21:12:00.282Z,14.96
2023-05-14T21:14:27.068Z,14.92
2023-05-14T21:16:53.957Z,14.86
2023-05-14T21:19:20.798Z,14.83
2023-05-14T21:21:47.635Z,14.79
2023-05-14T21:24:16.699Z,14.72
2023-05-14T21:26:43.684Z,14.65
2023-05-14T21:29:11.047Z,14.58
2023-05-14T21:31:37.906Z,14.53
2023-05-14T21:34:04.753Z,14.48
2023-05-14T21:36:31.889Z,14.44
2023-05-14T21:38:58.699Z,14.36
2023-05-14T21:41:25.706Z,14.29
2023-05-14T21:43:52.545Z,14.25
2023-05-14T21:46:19.476Z,14.22
2023-05-14T21:48:47.457Z,14.16
2023-05-14T21:51:14.620Z,14.13
2023-05-14T21:53:41.478Z,14.10
2023-05-14T21:56:08.317Z,14.04
2023-05-14T21:58:35.971Z,14.00
2023-05-14T22:01:03.075Z,13.94
2023-05-14T22:03:30.095Z,13.89
2023-05-14T22:05:57.377Z,13.83
2023-05-14T22:08:24.334Z,13.78
2023-05-14T22:10:51.132Z,13.74
2023-05-14T22:13:18.029Z,13.69
2023-05-14T22:15:45.013Z,13.64
2023-05-14T22:18:12.919Z,13.62
2023-05-14T22:20:40.145Z,13.59
2023-05-14T22:23:07.162Z,13.58
2023-05-14T22:25:34.372Z,13.55
2023-05-14T22:28:01.315Z,13.54
2023-05-14T22:30:28.203Z,13.50
2023-05-14T22:32:55.067Z,13.44
2023-05-14T22:35:22.049Z,13.40
2023-05-14T22:37:48.913Z,13.36
2023-05-14T22:40:16.131Z,13.34
2023-05-14T22:42:43.054Z,13.30
2023-05-14T22:45:10.573Z,13.27
2023-05-14T22:47:38.524Z,13.22
2023-05-14T22:50:11.348Z,13.21
2023-05-14T22:52:39.302Z,13.19
2023-05-14T22:55:06.852Z,13.14
2023-05-14T22:57:34.642Z,13.08
2023-05-14T23:00:04.886Z,13.05
2023-05-14T23:02:31.803Z,13.00
2023-05-14T23:04:58.609Z,12.92
2023-05-14T23:07:25.543Z,12.86
2023-05-14T23:09:52.367Z,12.82
2023-05-14T23:12:19.157Z,12.79
2023-05-14T23:14:46.031Z,12.80
2023-05-14T23:17:13.011Z,12.78
2023-05-14T23:19:39.829Z,12.79
2023-05-14T23:22:06.710Z,12.77
2023-05-14T23:24:33.525Z,12.76
2023-05-14T23:27:00.718Z,12.75
2023-05-14T23:29:27.508Z,12.77
2023-05-14T23:31:54.544Z,12.77
2023-05-14T23:34:22.192Z,12.79
2023-05-14T23:36:49.823Z,12.78
2023-05-14T23:39:17.033Z,12.76
2023-05-14T23:41:43.917Z,12.75
2023-05-14T23:44:10.857Z,12.70
2023-05-14T23:46:37.781Z,12.66
2023-05-14T23:49:05.217Z,12.62
2023-05-14T23:51:32.089Z,12.59
2023-05-14T23:53:58.927Z,12.53
2023-05-14T23:56:28.965Z,12.48
2023-05-14T23:58:56.796Z,12.43
